sensor_id;sensor_type;location;lat;lon;timestamp;P1;durP1;ratioP1;P2;durP2;ratioP2
23614;SDS011;11985;49.404;7.734;2022-12-17T00:00:20;8.85;;;3.95;;
23614;SDS011;11985;49.404;7.734;2022-12-17T00:05:39;12.27;;;4.13;;
23614;SDS011;11985;49.404;7.734;2022-12-17T00:11:00;10.90;;;4.57;;
23614;SDS011;11985;49.404;7.734;2022-12-17T00:16:19;11.55;;;4.70;;
23614;SDS011;11985;49.404;7.734;2022-12-17T00:21:39;10.07;;;4.57;;
23614;SDS011;11985;49.404;7.734;2022-12-17T00:26:59;15.13;;;4.82;;
23614;SDS011;11985;49.404;7.734;2022-12-17T00:32:19;9.68;;;4.13;;
23614;SDS011;11985;49.404;7.734;2022-12-17T00:37:38;13.68;;;4.43;;
23614;SDS011;11985;49.404;7.734;2022-12-17T00:43:07;11.52;;;4.10;;
23614;SDS011;11985;49.404;7.734;2022-12-17T00:48:31;10.63;;;4.68;;
23614;SDS011;11985;49.404;7.734;2022-12-17T00:53:52;14.85;;;4.20;;
23614;SDS011;11985;49.404;7.734;2022-12-17T00:59:13;11.32;;;4.22;;
23614;SDS011;11985;49.404;7.734;2022-12-17T01:04:32;10.65;;;4.47;;
23614;SDS011;11985;49.404;7.734;2022-12-17T01:09:51;11.55;;;4.53;;
23614;SDS011;11985;49.404;7.734;2022-12-17T01:15:11;12.82;;;4.97;;
23614;SDS011;11985;49.404;7.734;2022-12-17T01:20:31;11.20;;;4.28;;
23614;SDS011;11985;49.404;7.734;2022-12-17T01:25:53;15.68;;;5.47;;
23614;SDS011;11985;49.404;7.734;2022-12-17T01:31:14;15.25;;;5.55;;
23614;SDS011;11985;49.404;7.734;2022-12-17T01:36:41;12.25;;;4.88;;
23614;SDS011;11985;49.404;7.734;2022-12-17T01:42:00;16.65;;;5.70;;
23614;SDS011;11985;49.404;7.734;2022-12-17T01:47:21;15.52;;;5.90;;
23614;SDS011;11985;49.404;7.734;2022-12-17T01:52:40;19.13;;;6.38;;
23614;SDS011;11985;49.404;7.734;2022-12-17T01:57:59;15.60;;;5.57;;
23614;SDS011;11985;49.404;7.734;2022-12-17T02:03:19;10.85;;;4.82;;
23614;SDS011;11985;49.404;7.734;2022-12-17T02:08:40;15.65;;;5.10;;
23614;SDS011;11985;49.404;7.734;2022-12-17T02:14:05;11.68;;;5.53;;
23614;SDS011;11985;49.404;7.734;2022-12-17T02:19:33;11.40;;;4.40;;
23614;SDS011;11985;49.404;7.734;2022-12-17T02:25:01;13.65;;;5.13;;
23614;SDS011;11985;49.404;7.734;2022-12-17T02:30:30;9.52;;;5.03;;
23614;SDS011;11985;49.404;7.734;2022-12-17T02:35:51;14.05;;;5.28;;
23614;SDS011;11985;49.404;7.734;2022-12-17T02:41:16;12.93;;;5.35;;
23614;SDS011;11985;49.404;7.734;2022-12-17T02:46:39;13.98;;;5.20;;
23614;SDS011;11985;49.404;7.734;2022-12-17T02:52:04;17.98;;;4.63;;
23614;SDS011;11985;49.404;7.734;2022-12-17T02:57:24;17.13;;;5.40;;
23614;SDS011;11985;49.404;7.734;2022-12-17T03:02:44;12.63;;;4.95;;
23614;SDS011;11985;49.404;7.734;2022-12-17T03:08:03;11.95;;;4.68;;
23614;SDS011;11985;49.404;7.734;2022-12-17T03:13:22;8.32;;;4.03;;
23614;SDS011;11985;49.404;7.734;2022-12-17T03:18:44;14.73;;;4.53;;
23614;SDS011;11985;49.404;7.734;2022-12-17T03:24:03;15.50;;;6.15;;
23614;SDS011;11985;49.404;7.734;2022-12-17T03:29:23;15.70;;;5.82;;
23614;SDS011;11985;49.404;7.734;2022-12-17T03:34:43;9.85;;;4.47;;
23614;SDS011;11985;49.404;7.734;2022-12-17T03:40:02;10.15;;;4.47;;
23614;SDS011;11985;49.404;7.734;2022-12-17T03:45:22;12.70;;;5.38;;
23614;SDS011;11985;49.404;7.734;2022-12-17T03:50:42;13.88;;;5.30;;
23614;SDS011;11985;49.404;7.734;2022-12-17T03:56:01;22.15;;;5.78;;
23614;SDS011;11985;49.404;7.734;2022-12-17T04:01:20;12.45;;;4.97;;
23614;SDS011;11985;49.404;7.734;2022-12-17T04:06:41;10.13;;;4.18;;
23614;SDS011;11985;49.404;7.734;2022-12-17T04:12:00;10.52;;;5.10;;
23614;SDS011;11985;49.404;7.734;2022-12-17T04:17:19;12.40;;;5.10;;
23614;SDS011;11985;49.404;7.734;2022-12-17T04:22:39;14.63;;;5.07;;
23614;SDS011;11985;49.404;7.734;2022-12-17T04:27:58;14.50;;;4.78;;
23614;SDS011;11985;49.404;7.734;2022-12-17T04:33:17;16.98;;;5.65;;
23614;SDS011;11985;49.404;7.734;2022-12-17T04:38:38;13.00;;;4.80;;
23614;SDS011;11985;49.404;7.734;2022-12-17T04:43:57;17.17;;;5.97;;
23614;SDS011;11985;49.404;7.734;2022-12-17T04:49:16;8.98;;;4.43;;
23614;SDS011;11985;49.404;7.734;2022-12-17T04:54:37;11.55;;;5.05;;
23614;SDS011;11985;49.404;7.734;2022-12-17T05:00:04;16.25;;;5.28;;
23614;SDS011;11985;49.404;7.734;2022-12-17T05:05:24;14.77;;;5.50;;
23614;SDS011;11985;49.404;7.734;2022-12-17T05:10:45;18.63;;;5.68;;
23614;SDS011;11985;49.404;7.734;2022-12-17T05:16:04;13.80;;;5.88;;
23614;SDS011;11985;49.404;7.734;2022-12-17T05:21:24;12.77;;;4.93;;
23614;SDS011;11985;49.404;7.734;2022-12-17T05:26:44;13.10;;;5.10;;
23614;SDS011;11985;49.404;7.734;2022-12-17T05:32:04;14.02;;;5.10;;
23614;SDS011;11985;49.404;7.734;2022-12-17T05:37:23;13.15;;;5.57;;
23614;SDS011;11985;49.404;7.734;2022-12-17T05:42:53;16.10;;;5.32;;
23614;SDS011;11985;49.404;7.734;2022-12-17T05:48:13;12.52;;;4.95;;
23614;SDS011;11985;49.404;7.734;2022-12-17T05:53:32;23.48;;;6.50;;
23614;SDS011;11985;49.404;7.734;2022-12-17T05:58:53;13.45;;;5.15;;
23614;SDS011;11985;49.404;7.734;2022-12-17T06:04:11;11.40;;;4.85;;
23614;SDS011;11985;49.404;7.734;2022-12-17T06:09:42;10.73;;;4.68;;
23614;SDS011;11985;49.404;7.734;2022-12-17T06:15:03;16.92;;;5.80;;
23614;SDS011;11985;49.404;7.734;2022-12-17T06:20:22;13.48;;;5.47;;
23614;SDS011;11985;49.404;7.734;2022-12-17T06:25:42;15.52;;;5.85;;
23614;SDS011;11985;49.404;7.734;2022-12-17T06:31:02;10.82;;;4.70;;
23614;SDS011;11985;49.404;7.734;2022-12-17T06:36:21;12.55;;;5.68;;
23614;SDS011;11985;49.404;7.734;2022-12-17T06:41:40;20.00;;;5.75;;
23614;SDS011;11985;49.404;7.734;2022-12-17T06:47:01;13.65;;;5.38;;
23614;SDS011;11985;49.404;7.734;2022-12-17T06:52:20;10.15;;;4.45;;
23614;SDS011;11985;49.404;7.734;2022-12-17T06:57:39;13.90;;;5.18;;
23614;SDS011;11985;49.404;7.734;2022-12-17T07:03:02;13.77;;;4.95;;
23614;SDS011;11985;49.404;7.734;2022-12-17T07:08:21;12.88;;;4.97;;
23614;SDS011;11985;49.404;7.734;2022-12-17T07:13:41;13.77;;;5.32;;
23614;SDS011;11985;49.404;7.734;2022-12-17T07:19:01;18.88;;;6.80;;
23614;SDS011;11985;49.404;7.734;2022-12-17T07:24:20;21.95;;;8.15;;
23614;SDS011;11985;49.404;7.734;2022-12-17T07:29:40;18.70;;;6.57;;
23614;SDS011;11985;49.404;7.734;2022-12-17T07:35:00;11.23;;;5.45;;
23614;SDS011;11985;49.404;7.734;2022-12-17T07:40:20;22.55;;;7.38;;
23614;SDS011;11985;49.404;7.734;2022-12-17T07:45:39;23.20;;;7.40;;
23614;SDS011;11985;49.404;7.734;2022-12-17T07:51:00;21.92;;;9.40;;
23614;SDS011;11985;49.404;7.734;2022-12-17T07:56:19;33.13;;;11.18;;
23614;SDS011;11985;49.404;7.734;2022-12-17T08:01:38;20.83;;;8.02;;
23614;SDS011;11985;49.404;7.734;2022-12-17T08:06:58;18.45;;;7.28;;
23614;SDS011;11985;49.404;7.734;2022-12-17T08:12:17;15.73;;;6.50;;
23614;SDS011;11985;49.404;7.734;2022-12-17T08:17:36;34.28;;;18.95;;
23614;SDS011;11985;49.404;7.734;2022-12-17T08:23:03;20.20;;;9.25;;
23614;SDS011;11985;49.404;7.734;2022-12-17T08:28:23;11.57;;;5.65;;
23614;SDS011;11985;49.404;7.734;2022-12-17T08:33:42;11.70;;;5.53;;
23614;SDS011;11985;49.404;7.734;2022-12-17T08:39:02;21.05;;;5.90;;
23614;SDS011;11985;49.404;7.734;2022-12-17T08:44:21;14.18;;;4.97;;
23614;SDS011;11985;49.404;7.734;2022-12-17T08:49:37;17.02;;;5.38;;
23614;SDS011;11985;49.404;7.734;2022-12-17T08:54:57;11.25;;;5.05;;
23614;SDS011;11985;49.404;7.734;2022-12-17T09:00:17;11.27;;;4.90;;
23614;SDS011;11985;49.404;7.734;2022-12-17T09:05:36;10.90;;;5.30;;
23614;SDS011;11985;49.404;7.734;2022-12-17T09:10:57;13.80;;;4.88;;
23614;SDS011;11985;49.404;7.734;2022-12-17T09:16:18;11.05;;;4.63;;
23614;SDS011;11985;49.404;7.734;2022-12-17T09:21:37;12.82;;;5.35;;
23614;SDS011;11985;49.404;7.734;2022-12-17T09:26:58;18.27;;;7.45;;
23614;SDS011;11985;49.404;7.734;2022-12-17T09:32:17;14.07;;;5.78;;
23614;SDS011;11985;49.404;7.734;2022-12-17T09:37:49;14.65;;;5.78;;
23614;SDS011;11985;49.404;7.734;2022-12-17T09:43:15;29.98;;;11.38;;
23614;SDS011;11985;49.404;7.734;2022-12-17T09:48:44;35.63;;;13.98;;
23614;SDS011;11985;49.404;7.734;2022-12-17T09:54:16;28.67;;;11.63;;
23614;SDS011;11985;49.404;7.734;2022-12-17T09:59:44;37.22;;;12.82;;
23614;SDS011;11985;49.404;7.734;2022-12-17T10:05:03;24.90;;;11.00;;
23614;SDS011;11985;49.404;7.734;2022-12-17T10:10:26;30.13;;;11.55;;
23614;SDS011;11985;49.404;7.734;2022-12-17T10:15:49;28.30;;;11.40;;
23614;SDS011;11985;49.404;7.734;2022-12-17T10:21:08;29.48;;;12.68;;
23614;SDS011;11985;49.404;7.734;2022-12-17T10:26:30;30.00;;;12.15;;
23614;SDS011;11985;49.404;7.734;2022-12-17T10:31:51;32.03;;;12.70;;
23614;SDS011;11985;49.404;7.734;2022-12-17T10:37:15;30.80;;;13.07;;
23614;SDS011;11985;49.404;7.734;2022-12-17T10:42:37;26.55;;;10.38;;
23614;SDS011;11985;49.404;7.734;2022-12-17T10:47:59;26.83;;;10.60;;
23614;SDS011;11985;49.404;7.734;2022-12-17T10:53:18;21.75;;;9.82;;
23614;SDS011;11985;49.404;7.734;2022-12-17T10:58:42;25.65;;;10.07;;
23614;SDS011;11985;49.404;7.734;2022-12-17T11:04:20;26.92;;;10.70;;
23614;SDS011;11985;49.404;7.734;2022-12-17T11:09:42;29.60;;;11.30;;
23614;SDS011;11985;49.404;7.734;2022-12-17T11:15:06;23.73;;;9.50;;
23614;SDS011;11985;49.404;7.734;2022-12-17T11:20:40;25.02;;;9.43;;
23614;SDS011;11985;49.404;7.734;2022-12-17T11:26:05;19.83;;;8.88;;
23614;SDS011;11985;49.404;7.734;2022-12-17T11:31:38;24.27;;;9.93;;
23614;SDS011;11985;49.404;7.734;2022-12-17T11:37:19;20.63;;;9.68;;
23614;SDS011;11985;49.404;7.734;2022-12-17T11:42:41;21.52;;;9.13;;
23614;SDS011;11985;49.404;7.734;2022-12-17T11:48:07;23.55;;;10.02;;
23614;SDS011;11985;49.404;7.734;2022-12-17T11:53:39;27.42;;;10.90;;
23614;SDS011;11985;49.404;7.734;2022-12-17T11:59:07;22.73;;;10.55;;
23614;SDS011;11985;49.404;7.734;2022-12-17T12:04:39;24.80;;;10.85;;
23614;SDS011;11985;49.404;7.734;2022-12-17T12:10:19;21.90;;;10.50;;
23614;SDS011;11985;49.404;7.734;2022-12-17T12:15:46;26.10;;;11.55;;
23614;SDS011;11985;49.404;7.734;2022-12-17T12:21:21;29.48;;;12.88;;
23614;SDS011;11985;49.404;7.734;2022-12-17T12:26:51;31.37;;;11.73;;
23614;SDS011;11985;49.404;7.734;2022-12-17T12:32:21;32.08;;;12.05;;
23614;SDS011;11985;49.404;7.734;2022-12-17T12:37:47;26.00;;;12.93;;
23614;SDS011;11985;49.404;7.734;2022-12-17T12:43:09;25.67;;;11.57;;
23614;SDS011;11985;49.404;7.734;2022-12-17T12:48:37;28.15;;;12.60;;
23614;SDS011;11985;49.404;7.734;2022-12-17T12:54:00;34.90;;;13.57;;
23614;SDS011;11985;49.404;7.734;2022-12-17T12:59:46;31.92;;;13.48;;
23614;SDS011;11985;49.404;7.734;2022-12-17T13:05:22;32.80;;;14.32;;
23614;SDS011;11985;49.404;7.734;2022-12-17T13:10:35;26.92;;;12.57;;
23614;SDS011;11985;49.404;7.734;2022-12-17T13:15:41;27.92;;;11.73;;
23614;SDS011;11985;49.404;7.734;2022-12-17T13:20:55;24.63;;;11.18;;
23614;SDS011;11985;49.404;7.734;2022-12-17T13:31:24;28.55;;;10.93;;
23614;SDS011;11985;49.404;7.734;2022-12-17T13:36:29;27.83;;;11.18;;
23614;SDS011;11985;49.404;7.734;2022-12-17T13:41:37;29.50;;;11.35;;
23614;SDS011;11985;49.404;7.734;2022-12-17T13:46:41;24.95;;;10.75;;
23614;SDS011;11985;49.404;7.734;2022-12-17T13:51:44;22.83;;;11.10;;
23614;SDS011;11985;49.404;7.734;2022-12-17T13:56:46;20.65;;;10.05;;
23614;SDS011;11985;49.404;7.734;2022-12-17T14:01:50;20.55;;;9.23;;
23614;SDS011;11985;49.404;7.734;2022-12-17T14:06:54;24.88;;;11.48;;
23614;SDS011;11985;49.404;7.734;2022-12-17T14:17:23;27.52;;;11.85;;
23614;SDS011;11985;49.404;7.734;2022-12-17T14:22:28;30.70;;;13.23;;
23614;SDS011;11985;49.404;7.734;2022-12-17T14:27:33;26.15;;;11.90;;
23614;SDS011;11985;49.404;7.734;2022-12-17T14:32:37;31.98;;;12.52;;
23614;SDS011;11985;49.404;7.734;2022-12-17T14:37:44;24.60;;;11.50;;
23614;SDS011;11985;49.404;7.734;2022-12-17T14:42:46;23.35;;;10.60;;
23614;SDS011;11985;49.404;7.734;2022-12-17T14:47:53;29.25;;;14.18;;
23614;SDS011;11985;49.404;7.734;2022-12-17T14:52:57;28.17;;;12.80;;
23614;SDS011;11985;49.404;7.734;2022-12-17T14:58:05;31.98;;;12.88;;
23614;SDS011;11985;49.404;7.734;2022-12-17T15:03:23;28.30;;;12.43;;
23614;SDS011;11985;49.404;7.734;2022-12-17T15:08:27;31.58;;;12.73;;
23614;SDS011;11985;49.404;7.734;2022-12-17T15:13:35;31.00;;;13.52;;
23614;SDS011;11985;49.404;7.734;2022-12-17T15:18:38;33.55;;;14.38;;
23614;SDS011;11985;49.404;7.734;2022-12-17T15:23:40;36.30;;;15.13;;
23614;SDS011;11985;49.404;7.734;2022-12-17T15:28:44;35.13;;;13.50;;
23614;SDS011;11985;49.404;7.734;2022-12-17T15:33:47;33.83;;;14.27;;
23614;SDS011;11985;49.404;7.734;2022-12-17T15:38:49;36.60;;;14.48;;
23614;SDS011;11985;49.404;7.734;2022-12-17T15:43:52;42.08;;;16.88;;
23614;SDS011;11985;49.404;7.734;2022-12-17T15:48:55;30.92;;;14.48;;
23614;SDS011;11985;49.404;7.734;2022-12-17T15:53:57;35.83;;;17.05;;
23614;SDS011;11985;49.404;7.734;2022-12-17T15:58:58;39.03;;;16.35;;
23614;SDS011;11985;49.404;7.734;2022-12-17T16:04:02;27.25;;;13.25;;
23614;SDS011;11985;49.404;7.734;2022-12-17T16:09:04;32.15;;;12.68;;
23614;SDS011;11985;49.404;7.734;2022-12-17T16:14:05;30.42;;;11.30;;
23614;SDS011;11985;49.404;7.734;2022-12-17T16:19:08;27.15;;;11.93;;
23614;SDS011;11985;49.404;7.734;2022-12-17T16:24:10;23.70;;;11.05;;
23614;SDS011;11985;49.404;7.734;2022-12-17T16:29:12;24.73;;;11.32;;
23614;SDS011;11985;49.404;7.734;2022-12-17T16:34:15;23.25;;;11.27;;
23614;SDS011;11985;49.404;7.734;2022-12-17T16:39:17;27.80;;;11.25;;
23614;SDS011;11985;49.404;7.734;2022-12-17T16:44:19;24.42;;;11.40;;
23614;SDS011;11985;49.404;7.734;2022-12-17T16:49:22;27.98;;;10.98;;
23614;SDS011;11985;49.404;7.734;2022-12-17T16:54:25;29.45;;;12.15;;
23614;SDS011;11985;49.404;7.734;2022-12-17T16:59:27;54.72;;;17.90;;
23614;SDS011;11985;49.404;7.734;2022-12-17T17:04:31;46.08;;;17.55;;
23614;SDS011;11985;49.404;7.734;2022-12-17T17:09:32;40.05;;;15.63;;
23614;SDS011;11985;49.404;7.734;2022-12-17T17:14:34;32.85;;;13.40;;
23614;SDS011;11985;49.404;7.734;2022-12-17T17:19:37;31.92;;;11.68;;
23614;SDS011;11985;49.404;7.734;2022-12-17T17:24:38;28.15;;;10.40;;
23614;SDS011;11985;49.404;7.734;2022-12-17T17:29:40;25.70;;;10.60;;
23614;SDS011;11985;49.404;7.734;2022-12-17T17:34:43;25.88;;;11.27;;
23614;SDS011;11985;49.404;7.734;2022-12-17T17:39:44;35.20;;;12.27;;
23614;SDS011;11985;49.404;7.734;2022-12-17T17:44:46;36.60;;;14.43;;
23614;SDS011;11985;49.404;7.734;2022-12-17T17:49:49;30.10;;;13.98;;
23614;SDS011;11985;49.404;7.734;2022-12-17T17:54:50;38.03;;;14.23;;
23614;SDS011;11985;49.404;7.734;2022-12-17T17:59:52;31.67;;;13.55;;
23614;SDS011;11985;49.404;7.734;2022-12-17T18:04:57;36.95;;;14.00;;
23614;SDS011;11985;49.404;7.734;2022-12-17T18:09:58;38.22;;;13.45;;
23614;SDS011;11985;49.404;7.734;2022-12-17T18:15:00;31.17;;;11.98;;
23614;SDS011;11985;49.404;7.734;2022-12-17T18:20:03;27.95;;;11.90;;
23614;SDS011;11985;49.404;7.734;2022-12-17T18:25:06;34.33;;;13.32;;
23614;SDS011;11985;49.404;7.734;2022-12-17T18:30:09;30.05;;;10.65;;
23614;SDS011;11985;49.404;7.734;2022-12-17T18:35:13;29.38;;;12.00;;
23614;SDS011;11985;49.404;7.734;2022-12-17T18:40:14;31.42;;;11.45;;
23614;SDS011;11985;49.404;7.734;2022-12-17T18:45:16;27.90;;;10.75;;
23614;SDS011;11985;49.404;7.734;2022-12-17T18:50:19;26.35;;;10.93;;
23614;SDS011;11985;49.404;7.734;2022-12-17T18:55:20;31.88;;;11.38;;
23614;SDS011;11985;49.404;7.734;2022-12-17T19:00:22;33.75;;;11.90;;
23614;SDS011;11985;49.404;7.734;2022-12-17T19:05:25;25.02;;;10.32;;
23614;SDS011;11985;49.404;7.734;2022-12-17T19:10:28;28.70;;;11.23;;
23614;SDS011;11985;49.404;7.734;2022-12-17T19:15:30;28.73;;;10.68;;
23614;SDS011;11985;49.404;7.734;2022-12-17T19:20:33;28.02;;;10.73;;
23614;SDS011;11985;49.404;7.734;2022-12-17T19:25:35;26.60;;;10.95;;
23614;SDS011;11985;49.404;7.734;2022-12-17T19:30:36;29.33;;;11.02;;
23614;SDS011;11985;49.404;7.734;2022-12-17T19:35:39;27.88;;;11.40;;
23614;SDS011;11985;49.404;7.734;2022-12-17T19:40:41;34.00;;;12.10;;
23614;SDS011;11985;49.404;7.734;2022-12-17T19:45:42;32.28;;;11.27;;
23614;SDS011;11985;49.404;7.734;2022-12-17T19:50:54;32.53;;;12.13;;
23614;SDS011;11985;49.404;7.734;2022-12-17T19:56:07;35.67;;;13.88;;
23614;SDS011;11985;49.404;7.734;2022-12-17T20:01:11;39.60;;;14.48;;
23614;SDS011;11985;49.404;7.734;2022-12-17T20:06:16;34.92;;;13.77;;
23614;SDS011;11985;49.404;7.734;2022-12-17T20:11:19;31.13;;;12.98;;
23614;SDS011;11985;49.404;7.734;2022-12-17T20:16:34;36.88;;;12.48;;
23614;SDS011;11985;49.404;7.734;2022-12-17T20:21:38;35.87;;;13.10;;
23614;SDS011;11985;49.404;7.734;2022-12-17T20:26:41;32.35;;;12.85;;
23614;SDS011;11985;49.404;7.734;2022-12-17T20:31:42;31.60;;;12.27;;
23614;SDS011;11985;49.404;7.734;2022-12-17T20:36:45;34.95;;;11.80;;
23614;SDS011;11985;49.404;7.734;2022-12-17T20:41:47;25.33;;;11.48;;
23614;SDS011;11985;49.404;7.734;2022-12-17T20:46:50;37.13;;;12.95;;
23614;SDS011;11985;49.404;7.734;2022-12-17T20:51:53;34.53;;;11.77;;
23614;SDS011;11985;49.404;7.734;2022-12-17T20:56:55;33.55;;;12.25;;
23614;SDS011;11985;49.404;7.734;2022-12-17T21:01:56;35.58;;;13.15;;
23614;SDS011;11985;49.404;7.734;2022-12-17T21:06:59;31.92;;;12.48;;
23614;SDS011;11985;49.404;7.734;2022-12-17T21:12:01;33.70;;;12.25;;
23614;SDS011;11985;49.404;7.734;2022-12-17T21:17:02;32.75;;;13.95;;
23614;SDS011;11985;49.404;7.734;2022-12-17T21:22:05;38.08;;;13.77;;
23614;SDS011;11985;49.404;7.734;2022-12-17T21:27:07;42.45;;;15.65;;
23614;SDS011;11985;49.404;7.734;2022-12-17T21:32:08;40.65;;;13.18;;
23614;SDS011;11985;49.404;7.734;2022-12-17T21:37:11;37.45;;;13.02;;
23614;SDS011;11985;49.404;7.734;2022-12-17T21:42:13;39.42;;;13.60;;
23614;SDS011;11985;49.404;7.734;2022-12-17T21:47:32;31.80;;;12.18;;
23614;SDS011;11985;49.404;7.734;2022-12-17T21:52:34;32.00;;;12.70;;
23614;SDS011;11985;49.404;7.734;2022-12-17T21:57:36;35.40;;;13.05;;
23614;SDS011;11985;49.404;7.734;2022-12-17T22:02:38;33.70;;;13.27;;
23614;SDS011;11985;49.404;7.734;2022-12-17T22:07:41;42.03;;;15.07;;
23614;SDS011;11985;49.404;7.734;2022-12-17T22:12:43;45.30;;;16.08;;
23614;SDS011;11985;49.404;7.734;2022-12-17T22:18:02;36.75;;;14.25;;
23614;SDS011;11985;49.404;7.734;2022-12-17T22:23:05;47.17;;;16.88;;
23614;SDS011;11985;49.404;7.734;2022-12-17T22:28:06;47.15;;;16.48;;
23614;SDS011;11985;49.404;7.734;2022-12-17T22:33:08;45.15;;;16.15;;
23614;SDS011;11985;49.404;7.734;2022-12-17T22:38:11;47.13;;;17.60;;
23614;SDS011;11985;49.404;7.734;2022-12-17T22:43:13;46.67;;;18.75;;
23614;SDS011;11985;49.404;7.734;2022-12-17T22:48:30;51.53;;;18.10;;
23614;SDS011;11985;49.404;7.734;2022-12-17T22:53:34;55.17;;;18.47;;
23614;SDS011;11985;49.404;7.734;2022-12-17T22:58:35;48.08;;;18.10;;
23614;SDS011;11985;49.404;7.734;2022-12-17T23:03:37;45.00;;;17.15;;
23614;SDS011;11985;49.404;7.734;2022-12-17T23:08:41;46.70;;;15.60;;
23614;SDS011;11985;49.404;7.734;2022-12-17T23:13:43;48.30;;;16.20;;
23614;SDS011;11985;49.404;7.734;2022-12-17T23:18:46;38.38;;;14.60;;
23614;SDS011;11985;49.404;7.734;2022-12-17T23:23:50;38.35;;;14.48;;
23614;SDS011;11985;49.404;7.734;2022-12-17T23:28:52;46.00;;;14.70;;
23614;SDS011;11985;49.404;7.734;2022-12-17T23:38:58;48.72;;;14.70;;
23614;SDS011;11985;49.404;7.734;2022-12-17T23:44:00;35.72;;;13.90;;
23614;SDS011;11985;49.404;7.734;2022-12-17T23:49:02;35.53;;;14.13;;
23614;SDS011;11985;49.404;7.734;2022-12-17T23:54:05;52.67;;;16.90;;
23614;SDS011;11985;49.404;7.734;2022-12-17T23:59:08;53.63;;;17.30;;
